Andover, Minnesota
Current Conditions -  °F | °C
As of 8:46 PM on Friday 31 Oct 2014 (Local Time) from KANE Reporting Station
Clear Clear  
Wind Chill: 27°   Ceiling: Unl
Heat Index: 27°   Visibility: 10mi
Dew Point: 18°   Wind: 0mph
Humidity: 69%   Direction: NA
Pressure: 30.48"   Gusts: NA
Location:  45.24°N, 93.31°W
Report Text: KANE 010146Z 00000KT 10SM SKC M03/M08 A3048
Loading
Personal Weather Stations






























Interactive Weather Map
Tropical Storm Tracking
New forecast layout! Learn more

10-Day Weather Forecast

Advertisements
Track Severe Weather on mobile